Time;durP1;ratioP1;P1;durP2;ratioP2;P2;SDS_P1;SDS_P2;PMS_P1;PMS_P2;Temp;Humidity;BMP_temperature;BMP_pressure;BME280_temperature;BME280_humidity;BME280_pressure;Samples;Min_cycle;Max_cycle;Signal;HPM_P1;HPM_P2
2023/08/23 00:01:47;;;;;;;29.50;25.48;;;614.50;2432.00;;;;;;5061780;28;20047;-59
2023/08/23 00:04:12;;;;;;;27.33;24.58;;;614.40;2432.00;;;;;;5048796;28;20025;-60
2023/08/23 00:06:38;;;;;;;26.80;23.42;;;614.40;2432.00;;;;;;5048594;28;20386;-59
2023/08/23 00:09:05;;;;;;;30.40;26.23;;;614.40;2432.00;;;;;;5048905;28;20094;-60
2023/08/23 00:11:31;;;;;;;28.88;25.95;;;589.70;2432.00;;;;;;5048684;28;20604;-59
2023/08/23 00:13:57;;;;;;;25.55;23.10;;;589.70;2432.00;;;;;;5053733;28;20474;-61
2023/08/23 00:16:23;;;;;;;29.63;26.75;;;589.70;2432.00;;;;;;5056802;28;20102;-58
2023/08/23 00:18:52;;;;;;;26.08;23.50;;;589.70;2432.00;;;;;;5047739;28;20151;-60
2023/08/23 00:21:17;;;;;;;29.35;26.08;;;589.60;2432.00;;;;;;5047944;28;20044;-61
2023/08/23 00:23:43;;;;;;;28.58;25.60;;;589.50;2432.00;;;;;;5048547;28;20033;-59
2023/08/23 00:26:11;;;;;;;27.25;24.67;;;589.50;2432.00;;;;;;5047753;28;20481;-62
2023/08/23 00:28:38;;;;;;;28.52;25.55;;;589.50;2432.00;;;;;;5056663;28;20021;-60
2023/08/23 00:31:03;;;;;;;28.92;25.88;;;589.60;2432.00;;;;;;5068205;28;20025;-63
2023/08/23 00:33:29;;;;;;;28.63;25.38;;;589.60;2432.00;;;;;;5068046;28;20021;-60
2023/08/23 00:35:55;;;;;;;28.25;25.27;;;589.60;2432.00;;;;;;5068385;28;20071;-60
2023/08/23 00:38:20;;;;;;;29.38;26.17;;;589.50;2432.00;;;;;;5068008;28;20013;-63
2023/08/23 00:40:46;;;;;;;30.23;26.20;;;589.50;2432.00;;;;;;5049100;28;20478;-61
2023/08/23 00:43:12;;;;;;;28.15;25.30;;;589.40;2432.00;;;;;;5068378;28;20438;-63
2023/08/23 00:45:40;;;;;;;27.17;24.48;;;589.40;2432.00;;;;;;5068354;28;20020;-60
2023/08/23 00:48:07;;;;;;;27.75;24.85;;;589.40;2432.00;;;;;;5068284;28;20021;-64
2023/08/23 00:50:34;;;;;;;28.92;24.85;;;589.30;2432.00;;;;;;5069942;28;20021;-61
2023/08/23 00:53:01;;;;;;;26.13;23.25;;;589.40;2432.00;;;;;;5071624;28;20025;-64
2023/08/23 00:55:27;;;;;;;28.58;25.67;;;589.40;2432.00;;;;;;5071567;28;20029;-63
2023/08/23 00:57:53;;;;;;;28.20;25.52;;;589.40;2432.00;;;;;;5072069;28;20032;-60
2023/08/23 01:00:19;;;;;;;34.80;26.30;;;589.40;2432.00;;;;;;5071645;28;20051;-60
2023/08/23 01:02:45;;;;;;;31.38;25.70;;;589.40;2432.00;;;;;;5071713;28;20040;-59
2023/08/23 01:05:12;;;;;;;29.33;26.35;;;589.40;2432.00;;;;;;5071283;28;20043;-59
2023/08/23 01:08:00;;;;;;;28.60;25.75;;;589.40;2432.00;;;;;;5071355;28;20487;-60
2023/08/23 01:10:42;;;;;;;29.23;25.88;;;589.30;2432.00;;;;;;5054732;28;20017;-60
2023/08/23 01:13:48;;;;;;;29.48;26.33;;;589.30;2432.00;;;;;;5071308;28;20044;-64
2023/08/23 01:16:16;;;;;;;28.45;25.55;;;589.30;2432.00;;;;;;5071027;28;20044;-64
2023/08/23 01:18:42;;;;;;;28.70;25.52;;;589.10;2432.00;;;;;;5071283;28;20027;-61
2023/08/23 01:21:10;;;;;;;29.63;26.65;;;589.00;2432.00;;;;;;5071109;28;20035;-59
2023/08/23 01:23:38;;;;;;;27.73;25.02;;;589.10;2432.00;;;;;;5070989;28;20051;-62
2023/08/23 01:26:04;;;;;;;30.15;26.42;;;589.00;2432.00;;;;;;5071469;28;20054;-59
2023/08/23 01:28:29;;;;;;;26.20;23.55;;;588.90;2432.00;;;;;;5070927;28;20024;-59
2023/08/23 01:30:59;;;;;;;29.40;26.42;;;588.90;2432.00;;;;;;5071426;28;20021;-60
2023/08/23 01:33:45;;;;;;;28.88;25.88;;;588.90;2432.00;;;;;;5070819;28;20031;-64
2023/08/23 01:36:17;;;;;;;28.20;25.27;;;588.90;2432.00;;;;;;5070692;28;20032;-65
2023/08/23 01:38:45;;;;;;;29.27;26.23;;;588.90;2432.00;;;;;;5071301;28;20482;-65
2023/08/23 01:41:11;;;;;;;25.10;22.42;;;588.80;2432.00;;;;;;5070756;28;20425;-59
2023/08/23 01:43:37;;;;;;;27.58;24.50;;;588.90;2432.00;;;;;;5070612;28;20086;-64
2023/08/23 01:46:02;;;;;;;27.83;25.13;;;589.00;2432.00;;;;;;5071010;28;20033;-59
2023/08/23 01:48:28;;;;;;;27.27;24.67;;;589.10;2432.00;;;;;;5070462;28;20457;-63
2023/08/23 01:50:54;;;;;;;25.95;23.33;;;589.20;2432.00;;;;;;5070958;28;20028;-59
2023/08/23 01:53:19;;;;;;;27.10;24.30;;;589.20;2432.00;;;;;;5070661;28;20569;-59
2023/08/23 01:55:45;;;;;;;27.23;24.33;;;589.30;2432.00;;;;;;5070622;28;20029;-63
2023/08/23 01:58:11;;;;;;;28.30;23.17;;;589.30;2432.00;;;;;;5070720;28;20032;-62
2023/08/23 02:00:37;;;;;;;27.23;24.42;;;589.30;2432.00;;;;;;5070072;28;20060;-60
2023/08/23 02:03:02;;;;;;;26.55;24.05;;;589.30;2432.00;;;;;;5070455;28;20386;-62
2023/08/23 02:05:31;;;;;;;26.52;23.92;;;589.10;2432.00;;;;;;5070061;28;20024;-64
2023/08/23 02:07:57;;;;;;;27.35;24.50;;;589.10;2432.00;;;;;;5070662;28;20031;-60
2023/08/23 02:10:22;;;;;;;27.77;24.75;;;589.10;2432.00;;;;;;5070535;28;20020;-63
2023/08/23 02:12:48;;;;;;;27.35;24.38;;;589.00;2432.00;;;;;;5069868;28;20048;-59
2023/08/23 02:15:14;;;;;;;28.65;25.73;;;589.00;2432.00;;;;;;5070235;28;20101;-64
2023/08/23 02:17:39;;;;;;;28.67;25.50;;;588.90;2432.00;;;;;;5070030;28;20025;-59
2023/08/23 02:20:06;;;;;;;26.90;24.13;;;588.90;2432.00;;;;;;5070201;28;20031;-61
2023/08/23 02:22:31;;;;;;;25.65;22.92;;;589.00;2432.00;;;;;;5069747;28;20070;-59
2023/08/23 02:24:57;;;;;;;28.73;25.67;;;588.90;2432.00;;;;;;5069752;28;20101;-60
2023/08/23 02:27:23;;;;;;;28.25;25.48;;;588.90;2432.00;;;;;;5070111;28;20017;-60
2023/08/23 02:29:49;;;;;;;27.25;24.33;;;564.10;2432.00;;;;;;5069474;28;20027;-63
2023/08/23 02:32:14;;;;;;;28.35;24.98;;;564.10;2432.00;;;;;;5070175;28;20056;-63
2023/08/23 02:34:40;;;;;;;28.25;25.23;;;588.80;2432.00;;;;;;5069852;28;20020;-60
2023/08/23 02:37:06;;;;;;;27.08;24.38;;;588.80;2432.00;;;;;;5070107;28;20817;-60
2023/08/23 02:39:31;;;;;;;28.25;24.15;;;564.10;2432.00;;;;;;5069894;28;20067;-64
2023/08/23 02:41:57;;;;;;;28.83;25.73;;;564.10;2432.00;;;;;;5069459;28;20562;-61
2023/08/23 02:44:23;;;;;;;26.77;24.08;;;564.10;2432.00;;;;;;5069812;28;20081;-61
2023/08/23 02:46:48;;;;;;;28.58;24.92;;;564.10;2432.00;;;;;;5069592;28;20487;-60
2023/08/23 02:49:14;;;;;;;24.00;21.65;;;564.00;2432.00;;;;;;5069385;28;20115;-60
2023/08/23 02:51:40;;;;;;;28.40;25.55;;;564.00;2432.00;;;;;;5069564;28;20024;-63
2023/08/23 02:54:05;;;;;;;24.88;22.45;;;564.00;2432.00;;;;;;5069151;28;20107;-61
2023/08/23 02:56:31;;;;;;;29.13;25.67;;;564.00;2432.00;;;;;;5069530;28;20017;-59
2023/08/23 02:58:57;;;;;;;27.77;24.88;;;564.00;2432.00;;;;;;5069234;28;20024;-61
2023/08/23 03:01:23;;;;;;;28.35;25.55;;;564.00;2432.00;;;;;;5069488;28;20020;-63
2023/08/23 03:03:48;;;;;;;27.75;24.80;;;564.00;2432.00;;;;;;5069134;28;20025;-62
2023/08/23 03:06:14;;;;;;;26.55;23.85;;;564.00;2432.00;;;;;;5069592;28;20017;-59
2023/08/23 03:08:40;;;;;;;30.50;27.50;;;564.00;2432.00;;;;;;5068973;28;20513;-58
2023/08/23 03:11:07;;;;;;;29.08;26.00;;;564.00;2432.00;;;;;;5069268;28;20032;-59
2023/08/23 03:13:33;;;;;;;26.58;23.85;;;563.90;2432.00;;;;;;5068291;28;20347;-58
2023/08/23 03:16:00;;;;;;;26.27;23.48;;;563.90;2432.00;;;;;;5069163;28;20094;-58
2023/08/23 03:18:27;;;;;;;29.75;24.83;;;563.90;2432.00;;;;;;5068549;28;20635;-61
2023/08/23 03:20:53;;;;;;;28.50;25.15;;;563.90;2432.00;;;;;;5069149;28;20024;-57
2023/08/23 03:23:19;;;;;;;28.45;25.58;;;563.70;2432.00;;;;;;5068603;28;20041;-60
2023/08/23 03:25:46;;;;;;;26.02;23.63;;;563.70;2432.00;;;;;;5069392;28;20036;-58
2023/08/23 03:28:15;;;;;;;27.27;24.50;;;563.70;2432.00;;;;;;5068835;28;20031;-59
2023/08/23 03:30:41;;;;;;;26.15;23.55;;;563.70;2432.00;;;;;;5068807;28;20027;-60
2023/08/23 03:33:07;;;;;;;27.55;24.75;;;563.70;2432.00;;;;;;5068410;28;20037;-57
2023/08/23 03:35:33;;;;;;;26.70;23.95;;;563.70;2432.00;;;;;;5050265;28;20108;-57
2023/08/23 03:37:59;;;;;;;27.00;23.52;;;563.80;2432.00;;;;;;5068454;28;20017;-57
2023/08/23 03:40:26;;;;;;;28.50;25.70;;;563.70;2432.00;;;;;;5068702;28;20040;-57
2023/08/23 03:42:52;;;;;;;26.58;23.90;;;563.70;2432.00;;;;;;5068687;28;20033;-57
2023/08/23 03:45:18;;;;;;;28.60;25.65;;;563.60;2432.00;;;;;;5068510;28;20040;-59
2023/08/23 03:47:44;;;;;;;28.15;25.40;;;563.60;2432.00;;;;;;5068569;28;20068;-59
2023/08/23 03:50:11;;;;;;;26.92;24.05;;;563.60;2432.00;;;;;;5068620;28;20505;-57
2023/08/23 03:52:37;;;;;;;28.67;25.20;;;563.60;2432.00;;;;;;5068348;28;20586;-57
2023/08/23 03:55:03;;;;;;;27.27;24.40;;;563.60;2432.00;;;;;;5068887;28;20016;-60
2023/08/23 03:57:28;;;;;;;26.60;23.88;;;563.60;2432.00;;;;;;5068343;28;20051;-59
2023/08/23 03:59:54;;;;;;;27.23;24.27;;;563.70;2432.00;;;;;;5068734;28;20074;-57
2023/08/23 04:02:20;;;;;;;27.75;25.05;;;563.80;2432.00;;;;;;5068057;28;20029;-61
2023/08/23 04:04:46;;;;;;;29.25;25.27;;;563.90;2432.00;;;;;;5068532;28;20055;-59
2023/08/23 04:07:14;;;;;;;25.23;22.70;;;564.00;2432.00;;;;;;5068286;28;20056;-59
2023/08/23 04:09:40;;;;;;;27.17;24.10;;;564.00;2432.00;;;;;;5068617;28;20080;-60
2023/08/23 04:12:06;;;;;;;28.55;25.65;;;564.10;2432.00;;;;;;5068257;28;20048;-60
2023/08/23 04:14:32;;;;;;;27.45;24.60;;;564.10;2432.00;;;;;;5069151;28;20028;-62
2023/08/23 04:16:59;;;;;;;27.63;24.90;;;588.80;2432.00;;;;;;5068605;28;20031;-62
2023/08/23 04:19:25;;;;;;;25.88;23.33;;;588.80;2432.00;;;;;;5069291;28;20108;-60
2023/08/23 04:21:51;;;;;;;28.85;25.92;;;588.90;2432.00;;;;;;5068651;28;20028;-62
2023/08/23 04:24:17;;;;;;;27.90;24.83;;;588.90;2432.00;;;;;;5070430;28;20498;-61
2023/08/23 04:26:42;;;;;;;27.65;25.02;;;588.90;2432.00;;;;;;5072706;28;20027;-61
2023/08/23 04:29:08;;;;;;;27.98;25.15;;;588.90;2432.00;;;;;;5072581;28;20025;-60
2023/08/23 04:31:34;;;;;;;28.80;25.98;;;589.00;2432.00;;;;;;5072839;28;20082;-64
2023/08/23 04:34:02;;;;;;;27.23;24.55;;;589.00;2432.00;;;;;;5072250;28;20460;-61
2023/08/23 04:36:28;;;;;;;30.92;24.92;;;589.00;2432.00;;;;;;5072107;28;20438;-61
2023/08/23 04:38:54;;;;;;;26.50;23.58;;;589.20;2432.00;;;;;;5072548;28;20103;-61
2023/08/23 04:41:19;;;;;;;24.80;22.42;;;614.80;2432.00;;;;;;5072198;28;20032;-61
2023/08/23 04:43:45;;;;;;;27.42;22.13;;;615.20;2432.00;;;;;;5072433;28;20047;-61
2023/08/23 04:46:11;;;;;;;25.65;23.10;;;615.10;2432.00;;;;;;5072269;28;20051;-62
2023/08/23 04:48:37;;;;;;;25.20;22.70;;;614.90;2432.00;;;;;;5072072;28;20025;-62
2023/08/23 04:51:08;;;;;;;25.60;22.83;;;614.80;2432.00;;;;;;5072146;28;20470;-60
2023/08/23 04:53:33;;;;;;;24.38;21.83;;;640.20;2432.00;;;;;;5072080;28;20023;-60
2023/08/23 04:55:59;;;;;;;23.75;21.27;;;666.20;2432.00;;;;;;5071882;28;20029;-61
2023/08/23 04:58:32;;;;;;;23.55;21.25;;;691.30;2432.00;;;;;;5072111;28;20029;-61
2023/08/23 05:00:59;;;;;;;22.08;19.98;;;716.80;2432.00;;;;;;5071794;28;20469;-60
2023/08/23 05:03:29;;;;;;;24.77;21.38;;;692.10;2432.00;;;;;;5071901;28;20131;-59
2023/08/23 05:05:54;;;;;;;22.98;20.73;;;692.10;2432.00;;;;;;5071892;28;20104;-60
2023/08/23 05:08:20;;;;;;;22.20;20.05;;;692.00;2432.00;;;;;;5071982;28;20055;-64
2023/08/23 05:10:54;;;;;;;23.88;21.52;;;692.10;2432.00;;;;;;5071563;28;20059;-63
2023/08/23 05:13:20;;;;;;;23.83;21.52;;;716.80;2432.00;;;;;;5071734;28;20115;-61
2023/08/23 05:15:53;;;;;;;22.15;20.10;;;717.20;2432.00;;;;;;5071691;28;20024;-64
2023/08/23 05:18:19;;;;;;;23.10;20.83;;;717.60;2432.00;;;;;;5071718;28;20377;-63
2023/08/23 05:20:45;;;;;;;23.80;21.45;;;743.10;2432.00;;;;;;5071428;28;20501;-60
2023/08/23 05:23:11;;;;;;;22.13;20.08;;;743.30;2432.00;;;;;;5071205;28;20039;-60
2023/08/23 05:25:37;;;;;;;21.60;19.60;;;768.30;2432.00;;;;;;5071488;28;20021;-60
2023/08/23 05:28:03;;;;;;;22.58;20.48;;;794.20;2380.80;;;;;;5071348;28;20470;-63
2023/08/23 05:30:30;;;;;;;22.20;20.30;;;845.40;2176.00;;;;;;5071207;28;20021;-64
2023/08/23 05:32:56;;;;;;;22.25;20.20;;;871.00;2073.60;;;;;;5071336;28;20028;-60
2023/08/23 05:35:22;;;;;;;22.05;19.88;;;921.70;1945.60;;;;;;5070950;28;20024;-61
2023/08/23 05:37:47;;;;;;;21.95;20.02;;;947.20;1843.20;;;;;;5070983;28;20039;-58
2023/08/23 05:40:13;;;;;;;22.70;20.58;;;921.90;1868.80;;;;;;5071502;28;20016;-61
2023/08/23 05:42:39;;;;;;;22.25;20.30;;;947.50;1792.00;;;;;;5070728;28;20041;-61
2023/08/23 05:45:05;;;;;;;22.42;20.38;;;947.30;1792.00;;;;;;5059846;28;20475;-63
2023/08/23 05:47:31;;;;;;;22.73;20.50;;;922.00;1843.20;;;;;;5065001;28;20025;-64
2023/08/23 05:49:57;;;;;;;22.45;20.20;;;922.40;1792.00;;;;;;5070594;28;20027;-63
2023/08/23 05:52:23;;;;;;;23.38;21.20;;;972.90;1740.80;;;;;;5071418;28;20024;-63
2023/08/23 05:54:49;;;;;;;21.67;19.75;;;973.70;1664.00;;;;;;5052659;28;20482;-64
2023/08/23 05:57:14;;;;;;;20.58;18.90;;;998.60;1664.00;;;;;;5071404;28;20025;-63
2023/08/23 05:59:40;;;;;;;20.77;18.98;;;998.90;1612.80;;;;;;5070810;28;20082;-63
2023/08/23 06:02:06;;;;;;;21.75;19.75;;;999.00;1612.80;;;;;;5070717;28;20025;-62
2023/08/23 06:04:32;;;;;;;22.20;20.17;;;999.20;1587.20;;;;;;5064881;28;20123;-63
2023/08/23 06:06:58;;;;;;;20.73;18.88;;;1024.60;1561.60;;;;;;5037599;28;20041;-62
2023/08/23 06:09:23;;;;;;;20.80;19.10;;;1049.80;1536.00;;;;;;5050503;28;20499;-62
2023/08/23 06:11:49;;;;;;;19.83;18.13;;;1075.70;1459.20;;;;;;5031972;28;20140;-60
2023/08/23 06:14:19;;;;;;;20.83;18.83;;;1101.10;1459.20;;;;;;5050110;28;20035;-64
2023/08/23 06:16:45;;;;;;;23.48;21.15;;;1101.70;1408.00;;;;;;5051426;28;20622;-62
2023/08/23 06:19:11;;;;;;;22.42;20.38;;;1101.70;1408.00;;;;;;5053468;28;20025;-64
2023/08/23 06:21:38;;;;;;;23.52;21.38;;;;;;;;;;5054892;28;20027;-62
2023/08/23 06:24:04;;;;;;;22.83;20.50;;;1126.40;1408.00;;;;;;5066109;28;20107;-60
2023/08/23 06:26:29;;;;;;;23.20;20.98;;;1126.40;1408.00;;;;;;5069895;28;20067;-61
2023/08/23 06:28:55;;;;;;;22.15;20.35;;;1127.00;1382.40;;;;;;5070507;28;20029;-61
2023/08/23 06:31:21;;;;;;;25.08;22.83;;;1127.10;1356.80;;;;;;5070030;28;20150;-67
2023/08/23 06:33:47;;;;;;;22.98;20.80;;;;;;;;;;5070114;28;20082;-63
2023/08/23 06:36:13;;;;;;;23.20;21.13;;;;;;;;;;5070003;28;20028;-65
2023/08/23 06:38:41;;;;;;;22.02;20.05;;;;;;;;;;5070112;28;20491;-65
2023/08/23 06:41:07;;;;;;;21.75;20.15;;;;;;;;;;5069588;28;20032;-65
2023/08/23 06:43:33;;;;;;;23.33;21.33;;;;;;;;;;5069772;28;20039;-65
2023/08/23 06:46:01;;;;;;;23.63;21.77;;;;;;;;;;5069566;28;20025;-67
2023/08/23 06:48:27;;;;;;;23.00;21.13;;;1177.80;1280.00;;;;;;5068505;28;20025;-61
2023/08/23 06:50:54;;;;;;;23.48;21.77;;;;;;;;;;5069763;28;20025;-64
2023/08/23 06:53:20;;;;;;;21.55;19.85;;;;;;;;;;5069684;28;20016;-62
2023/08/23 06:55:46;;;;;;;22.17;20.35;;;;;;;;;;5069763;28;20021;-66
2023/08/23 06:58:12;;;;;;;23.10;21.08;;;;;;;;;;5069764;28;20029;-61
2023/08/23 07:00:38;;;;;;;23.75;21.75;;;;;;;;;;5069260;28;20028;-62
2023/08/23 07:03:05;;;;;;;23.40;21.38;;;;;;;;;;5069270;28;20032;-61
2023/08/23 07:05:34;;;;;;;23.73;20.45;;;;;;;;;;5069157;28;20029;-66
2023/08/23 07:08:00;;;;;;;24.63;21.80;;;;;;;;;;5069252;28;20447;-60
2023/08/23 07:10:26;;;;;;;23.52;21.42;;;;;;;;;;5069621;28;20025;-65
2023/08/23 07:12:52;;;;;;;25.13;22.88;;;;;;;;;;5069251;28;20059;-66
2023/08/23 07:15:19;;;;;;;23.75;21.67;;;;;;;;;;5069556;28;20016;-61
2023/08/23 07:17:45;;;;;;;23.40;21.48;;;;;;;;;;5069291;28;20043;-61
2023/08/23 07:20:13;;;;;;;25.42;23.63;;;;;;;;;;5068879;28;20021;-62
2023/08/23 07:22:39;;;;;;;26.27;23.25;;;;;;;;;;5068935;28;20048;-61
2023/08/23 07:25:06;;;;;;;24.15;22.00;;;;;;;;;;5056262;28;20121;-62
2023/08/23 07:27:32;;;;;;;25.13;23.33;;;;;;;;;;5069318;28;20071;-65
2023/08/23 07:29:58;;;;;;;26.42;24.50;;;;;;;;;;5068772;28;20036;-61
2023/08/23 07:32:30;;;;;;;25.20;23.25;;;;;;;;;;5069301;28;20029;-61
2023/08/23 07:34:56;;;;;;;24.85;22.88;;;;;;;;;;5068870;28;20017;-62
2023/08/23 07:37:22;;;;;;;25.05;23.08;;;;;;;;;;5069364;28;20103;-61
2023/08/23 07:39:49;;;;;;;24.02;22.33;;;;;;;;;;5068757;28;20023;-61
2023/08/23 07:42:15;;;;;;;25.95;24.05;;;;;;;;;;5068901;28;20033;-61
2023/08/23 07:44:41;;;;;;;27.10;25.02;;;;;;;;;;5068727;28;20032;-61
2023/08/23 07:47:07;;;;;;;29.42;27.02;;;;;;;;;;5068768;28;20541;-62
2023/08/23 07:49:33;;;;;;;27.92;25.48;;;;;;;;;;5068975;28;20024;-65
2023/08/23 07:51:59;;;;;;;28.35;26.02;;;;;;;;;;5068691;28;20021;-61
2023/08/23 07:54:25;;;;;;;29.52;26.95;;;;;;;;;;5068720;28;20017;-66
2023/08/23 07:56:51;;;;;;;27.45;25.17;;;;;;;;;;5068883;28;20108;-61
2023/08/23 07:59:17;;;;;;;28.65;26.42;;;;;;;;;;5070355;28;20035;-62
2023/08/23 08:01:43;;;;;;;28.00;25.52;;;;;;;;;;5072885;28;20024;-65
2023/08/23 08:04:09;;;;;;;28.42;25.67;;;;;;;;;;5072579;28;20025;-62
2023/08/23 08:06:35;;;;;;;27.42;25.08;;;;;;;;;;5072794;28;20052;-64
2023/08/23 08:09:01;;;;;;;27.75;25.25;;;;;;;;;;5072279;28;20024;-63
2023/08/23 08:11:27;;;;;;;27.95;25.65;;;;;;;;;;5072414;28;20036;-62
2023/08/23 08:13:53;;;;;;;25.48;23.58;;;;;;;;;;5072556;28;20506;-61
2023/08/23 08:16:19;;;;;;;27.40;25.35;;;;;;;;;;5072716;28;20398;-67
2023/08/23 08:18:45;;;;;;;25.60;23.52;;;;;;;;;;5072375;28;20101;-64
2023/08/23 08:21:12;;;;;;;27.17;24.70;;;;;;;;;;5072301;28;20024;-62
2023/08/23 08:23:38;;;;;;;26.63;24.35;;;;;;;;;;5072085;28;20024;-65
2023/08/23 08:26:07;;;;;;;28.23;25.50;;;;;;;;;;5072597;28;20043;-62
2023/08/23 08:28:33;;;;;;;25.60;23.45;;;;;;;;;;5072318;28;20012;-64
2023/08/23 08:31:00;;;;;;;26.75;24.75;;;;;;;;;;5071842;28;20082;-63
2023/08/23 08:33:26;;;;;;;25.38;23.48;;;;;;;;;;5072237;28;20028;-62
2023/08/23 08:35:52;;;;;;;26.10;23.85;;;;;;;;;;5071839;28;20050;-63
2023/08/23 08:38:18;;;;;;;26.30;24.17;;;;;;;;;;5071977;28;20048;-63
2023/08/23 08:40:44;;;;;;;26.50;23.83;;;;;;;;;;5072251;28;20079;-62
2023/08/23 08:43:10;;;;;;;27.10;24.50;;;;;;;;;;5071736;28;20037;-62
2023/08/23 08:45:37;;;;;;;25.70;23.23;;;;;;;;;;5053626;28;20055;-62
2023/08/23 08:48:03;;;;;;;23.38;21.20;;;;;;;;;;5071928;28;20017;-62
2023/08/23 08:50:32;;;;;;;24.13;21.85;;;;;;;;;;5071721;28;20033;-62
2023/08/23 08:52:59;;;;;;;24.15;22.08;;;999.20;1459.20;;;;;;5072124;28;20029;-62
2023/08/23 08:55:27;;;;;;;25.13;21.77;;;998.90;1484.80;;;;;;5054262;28;20021;-62
2023/08/23 08:57:54;;;;;;;21.60;19.50;;;973.20;1536.00;;;;;;5072492;28;20024;-61
2023/08/23 09:00:24;;;;;;;20.55;18.85;;;947.70;1561.60;;;;;;5072035;28;20024;-62
2023/08/23 09:02:53;;;;;;;23.15;21.08;;;922.40;1587.20;;;;;;5071590;28;20040;-61
2023/08/23 09:05:21;;;;;;;21.58;19.88;;;922.00;1587.20;;;;;;5071652;28;20024;-62
2023/08/23 09:07:47;;;;;;;22.45;20.67;;;947.40;1561.60;;;;;;5072092;28;20483;-62
2023/08/23 09:10:14;;;;;;;20.85;19.02;;;947.30;1561.60;;;;;;5071117;28;20035;-62
2023/08/23 09:12:40;;;;;;;20.80;18.75;;;947.50;1561.60;;;;;;5071391;28;20372;-62
2023/08/23 09:15:06;;;;;;;21.40;19.13;;;947.30;1587.20;;;;;;5071868;28;20039;-62
2023/08/23 09:17:36;;;;;;;21.38;19.58;;;947.80;1561.60;;;;;;5071840;28;20016;-62
2023/08/23 09:20:06;;;;;;;24.05;21.70;;;947.90;1587.20;;;;;;5069113;28;20037;-61
2023/08/23 09:22:33;;;;;;;24.15;21.85;;;922.50;1638.40;;;;;;5070301;28;20107;-62
2023/08/23 09:25:05;;;;;;;24.83;22.35;;;922.40;1638.40;;;;;;5056902;28;20091;-62
2023/08/23 09:27:31;;;;;;;22.83;20.67;;;947.20;1638.40;;;;;;5070032;28;20489;-61
2023/08/23 09:30:02;;;;;;;23.88;21.33;;;922.00;1664.00;;;;;;5067236;28;20040;-61
2023/08/23 09:32:28;;;;;;;24.27;21.85;;;922.00;1689.60;;;;;;5069493;28;20102;-62
2023/08/23 09:34:54;;;;;;;23.25;20.95;;;921.60;1689.60;;;;;;5069750;28;20052;-61
2023/08/23 09:37:19;;;;;;;24.42;20.15;;;922.40;1664.00;;;;;;5069935;28;20489;-61
2023/08/23 09:39:45;;;;;;;21.45;19.65;;;922.30;1638.40;;;;;;5070009;28;20086;-61
2023/08/23 09:42:14;;;;;;;24.58;22.02;;;947.40;1587.20;;;;;;5069232;28;20028;-62
2023/08/23 09:44:43;;;;;;;22.55;20.55;;;922.50;1664.00;;;;;;5069069;28;20029;-62
2023/08/23 09:47:17;;;;;;;22.33;20.23;;;922.40;1638.40;;;;;;5069657;28;20016;-62
2023/08/23 09:49:44;;;;;;;23.60;20.92;;;947.20;1612.80;;;;;;5069889;28;20028;-61
2023/08/23 09:52:11;;;;;;;24.75;21.13;;;947.40;1612.80;;;;;;5069156;28;20052;-63
2023/08/23 09:55:16;;;;;;;23.75;21.45;;;922.50;1638.40;;;;;;5069881;28;20024;-61
2023/08/23 09:57:42;;;;;;;22.17;20.05;;;947.50;1638.40;;;;;;4997265;28;20029;-62
2023/08/23 10:00:09;;;;;;;23.85;21.42;;;922.50;1612.80;;;;;;5007213;28;20030;-62
2023/08/23 10:02:36;;;;;;;22.27;20.48;;;922.40;1664.00;;;;;;5007455;28;20388;-62
2023/08/23 10:05:06;;;;;;;23.27;21.15;;;947.20;1664.00;;;;;;5007116;28;20088;-61
2023/08/23 10:07:35;;;;;;;23.55;20.75;;;947.30;1638.40;;;;;;5007246;28;20502;-62
2023/08/23 10:10:03;;;;;;;23.08;20.75;;;947.20;1612.80;;;;;;5007013;28;20123;-61
2023/08/23 10:12:30;;;;;;;24.02;21.48;;;947.40;1612.80;;;;;;5019717;28;20392;-62
2023/08/23 10:14:58;;;;;;;23.55;21.23;;;922.50;1612.80;;;;;;5026813;28;20124;-62
2023/08/23 10:17:25;;;;;;;23.75;20.85;;;922.30;1664.00;;;;;;5026993;28;20033;-61
2023/08/23 10:19:52;;;;;;;28.08;19.73;;;921.70;1689.60;;;;;;5026422;28;20025;-62
2023/08/23 10:22:18;;;;;;;20.58;18.77;;;896.90;1664.00;;;;;;5026341;28;20060;-62
2023/08/23 10:24:48;;;;;;;21.50;19.40;;;896.80;1664.00;;;;;;5025595;28;20036;-61
2023/08/23 10:27:15;;;;;;;22.38;20.13;;;896.70;1612.80;;;;;;5026935;28;20029;-62
2023/08/23 10:29:40;;;;;;;21.65;17.75;;;896.80;1638.40;;;;;;5062430;28;20474;-61
2023/08/23 10:32:11;;;;;;;22.08;19.98;;;921.70;1664.00;;;;;;5068931;28;20044;-62
2023/08/23 10:34:39;;;;;;;20.65;18.50;;;896.90;1638.40;;;;;;5069011;28;20034;-62
2023/08/23 10:37:20;;;;;;;20.23;18.33;;;921.80;1612.80;;;;;;5068340;28;20056;-61
2023/08/23 10:39:53;;;;;;;20.60;18.25;;;922.00;1638.40;;;;;;5069078;28;20101;-63
2023/08/23 10:42:20;;;;;;;21.85;19.73;;;922.00;1664.00;;;;;;5068442;28;20037;-61
2023/08/23 10:44:54;;;;;;;20.00;18.05;;;921.90;1689.60;;;;;;5068745;28;20505;-61
2023/08/23 10:47:20;;;;;;;20.33;18.50;;;921.80;1689.60;;;;;;5050523;28;20021;-62
2023/08/23 10:49:47;;;;;;;21.48;19.33;;;896.60;1689.60;;;;;;5068265;28;20023;-62
2023/08/23 10:52:13;;;;;;;21.65;19.73;;;896.50;1689.60;;;;;;5068126;28;20033;-62
2023/08/23 10:54:40;;;;;;;21.52;19.13;;;896.80;1664.00;;;;;;5068450;28;20077;-61
2023/08/23 10:57:06;;;;;;;22.20;18.50;;;896.60;1689.60;;;;;;5068107;28;20028;-62
2023/08/23 10:59:32;;;;;;;22.70;20.27;;;896.10;1715.20;;;;;;5068436;28;20120;-62
2023/08/23 11:01:58;;;;;;;22.85;20.60;;;896.00;1715.20;;;;;;5067921;28;20069;-62
2023/08/23 11:04:24;;;;;;;22.38;20.20;;;896.10;1715.20;;;;;;5067945;28;20028;-62
2023/08/23 11:06:50;;;;;;;19.98;18.25;;;896.50;1740.80;;;;;;5067985;28;20020;-61
2023/08/23 11:09:17;;;;;;;21.60;19.67;;;896.40;1664.00;;;;;;5068011;28;20039;-62
2023/08/23 11:11:43;;;;;;;20.40;18.40;;;896.80;1664.00;;;;;;5067809;28;20071;-61
2023/08/23 11:14:09;;;;;;;21.42;19.33;;;896.80;1664.00;;;;;;5068017;28;20071;-62
2023/08/23 11:16:35;;;;;;;25.02;19.23;;;921.60;1689.60;;;;;;5067875;28;20013;-61
2023/08/23 11:19:04;;;;;;;21.75;19.58;;;922.00;1689.60;;;;;;5067861;28;20017;-62
2023/08/23 11:21:31;;;;;;;19.98;18.27;;;921.70;1664.00;;;;;;5067623;28;20031;-61
2023/08/23 11:23:57;;;;;;;21.38;19.20;;;921.60;1664.00;;;;;;5067750;28;20040;-62
2023/08/23 11:26:23;;;;;;;22.42;20.27;;;896.70;1664.00;;;;;;5068022;28;20466;-60
2023/08/23 11:28:51;;;;;;;21.70;19.63;;;896.70;1689.60;;;;;;5067740;28;20024;-62
2023/08/23 11:31:17;;;;;;;22.75;20.55;;;896.90;1689.60;;;;;;5067229;28;20029;-62
2023/08/23 11:33:43;;;;;;;22.42;20.15;;;896.60;1689.60;;;;;;5067289;28;20028;-62
2023/08/23 11:36:09;;;;;;;21.00;19.20;;;896.90;1689.60;;;;;;5067466;28;20509;-62
2023/08/23 11:38:35;;;;;;;22.55;20.25;;;921.60;1740.80;;;;;;5067623;28;20016;-61
2023/08/23 11:41:01;;;;;;;22.45;19.55;;;921.70;1715.20;;;;;;5067602;28;20493;-62
2023/08/23 11:43:30;;;;;;;20.38;18.65;;;921.60;1689.60;;;;;;5066932;28;20475;-62
2023/08/23 11:45:57;;;;;;;21.20;19.20;;;896.70;1664.00;;;;;;5068020;28;20131;-61
2023/08/23 11:48:23;;;;;;;22.45;20.35;;;896.90;1689.60;;;;;;5067795;28;20027;-62
2023/08/23 11:50:50;;;;;;;20.85;18.80;;;896.50;1664.00;;;;;;5067179;28;20025;-62
2023/08/23 11:53:16;;;;;;;22.67;20.60;;;896.00;1689.60;;;;;;5067803;28;20028;-61
2023/08/23 11:55:42;;;;;;;22.20;20.13;;;871.30;1715.20;;;;;;5066709;28;20371;-61
2023/08/23 11:58:09;;;;;;;22.25;20.00;;;896.00;1715.20;;;;;;5067886;28;20032;-62
2023/08/23 12:00:35;;;;;;;24.98;22.23;;;896.40;1689.60;;;;;;5067555;28;20027;-62
2023/08/23 12:03:02;;;;;;;20.70;18.70;;;871.10;1689.60;;;;;;5067307;28;20452;-61
2023/08/23 12:05:27;;;;;;;21.60;19.42;;;896.00;1715.20;;;;;;5066828;28;20028;-62
2023/08/23 12:07:53;;;;;;;21.67;19.45;;;896.40;1689.60;;;;;;5067567;28;20032;-62
2023/08/23 12:10:19;;;;;;;22.80;20.63;;;896.60;1664.00;;;;;;5066476;28;20028;-62
2023/08/23 12:12:45;;;;;;;20.40;18.42;;;896.80;1664.00;;;;;;5067408;28;20115;-61
2023/08/23 12:15:10;;;;;;;20.80;18.70;;;896.90;1638.40;;;;;;5067412;28;20027;-63
2023/08/23 12:17:37;;;;;;;23.63;19.13;;;921.70;1664.00;;;;;;5067621;28;20017;-61
2023/08/23 12:20:04;;;;;;;22.40;18.85;;;921.70;1664.00;;;;;;5067153;28;20025;-62